Time;durP1;ratioP1;P1;durP2;ratioP2;P2;SDS_P1;SDS_P2;PMS_P1;PMS_P2;Temp;Humidity;BMP_temperature;BMP_pressure;BME280_temperature;BME280_humidity;BME280_pressure;Samples;Min_cycle;Max_cycle;Signal;HPM_P1;HPM_P2
2022/01/02 00:05:08;;;;;;;0.00;0.00;;;6.20;65.80;;;;;;20645380;28;20518;-61
2022/01/02 00:17:22;;;;;;;0.17;0.00;;;5.80;67.10;;;;;;20654313;28;20102;-63
2022/01/02 00:29:21;;;;;;;0.00;0.00;;;5.60;68.40;;;;;;20580437;28;20074;-63
2022/01/02 00:41:28;;;;;;;0.00;0.00;;;5.30;68.30;;;;;;20602816;28;20050;-64
2022/01/02 00:53:23;;;;;;;0.20;0.00;;;5.40;68.30;;;;;;20646483;28;20035;-55
2022/01/02 01:05:29;;;;;;;0.10;0.00;;;5.70;68.40;;;;;;20681192;28;20082;-53
2022/01/02 01:17:46;;;;;;;0.30;0.00;;;5.90;66.90;;;;;;20655600;28;20050;-52
2022/01/02 01:29:53;;;;;;;0.00;0.00;;;5.90;65.80;;;;;;20679322;28;20042;-51
2022/01/02 01:42:07;;;;;;;0.00;0.00;;;5.90;65.60;;;;;;20666954;28;20039;-52
2022/01/02 01:53:55;;;;;;;0.15;0.08;;;5.90;66.00;;;;;;20827309;28;20042;-52
2022/01/02 02:05:51;;;;;;;0.30;0.08;;;5.60;65.20;;;;;;20840734;28;20049;-52
2022/01/02 02:17:57;;;;;;;0.20;0.10;;;5.80;65.00;;;;;;20729713;28;20054;-51
2022/01/02 02:30:03;;;;;;;0.68;0.00;;;5.50;67.30;;;;;;20656976;28;20050;-50
2022/01/02 02:41:46;;;;;;;0.20;0.08;;;5.60;66.00;;;;;;20809425;28;20048;-51
2022/01/02 02:53:19;;;;;;;0.10;0.00;;;5.70;67.60;;;;;;20918544;28;20053;-56
2022/01/02 03:05:15;;;;;;;0.20;0.00;;;5.30;68.60;;;;;;20840494;28;20060;-53
2022/01/02 03:16:48;;;;;;;0.10;0.00;;;5.10;69.00;;;;;;20894673;28;20052;-54
2022/01/02 03:29:06;;;;;;;0.20;0.00;;;5.10;68.30;;;;;;20564990;28;20082;-54
2022/01/02 03:41:02;;;;;;;0.30;0.00;;;5.20;68.20;;;;;;20553279;28;20066;-53
2022/01/02 03:52:57;;;;;;;0.20;0.00;;;5.40;65.70;;;;;;20505431;28;20071;-58
2022/01/02 04:04:41;;;;;;;0.00;0.00;;;5.20;68.50;;;;;;20520644;28;20456;-53
2022/01/02 04:16:25;;;;;;;0.15;0.00;;;4.90;68.50;;;;;;20515452;28;20074;-54
2022/01/02 04:28:20;;;;;;;0.17;0.00;;;5.00;67.80;;;;;;20547746;28;20039;-57
2022/01/02 04:40:16;;;;;;;0.00;0.00;;;4.90;68.90;;;;;;20499156;28;20047;-56
2022/01/02 04:51:49;;;;;;;0.10;0.00;;;4.80;68.80;;;;;;20504366;28;20070;-55
2022/01/02 05:03:57;;;;;;;0.28;0.00;;;4.80;68.20;;;;;;20477962;28;20073;-55
2022/01/02 05:16:03;;;;;;;0.08;0.00;;;4.80;68.70;;;;;;20491828;28;20063;-54
2022/01/02 05:28:09;;;;;;;0.10;0.00;;;4.50;70.70;;;;;;20491528;28;20511;-54
2022/01/02 05:40:04;;;;;;;0.30;0.00;;;4.10;70.00;;;;;;20505338;28;20047;-55
2022/01/02 05:52:00;;;;;;;0.38;0.05;;;4.10;70.80;;;;;;20495319;28;20067;-55
2022/01/02 06:04:06;;;;;;;0.10;0.05;;;4.00;71.90;;;;;;20516477;28;20043;-58
2022/01/02 06:16:01;;;;;;;0.00;0.00;;;4.00;73.00;;;;;;20748718;28;20042;-51
2022/01/02 06:52:51;;;;;;;0.13;0.00;;;3.80;72.10;;;;;;20825112;28;20081;-56
2022/01/02 07:04:46;;;;;;;0.10;0.00;;;4.20;71.90;;;;;;20808168;28;20095;-54
2022/01/02 07:16:15;;;;;;;0.00;0.00;;;4.10;72.20;;;;;;20784184;28;20068;-54
2022/01/02 07:28:37;;;;;;;0.13;0.00;;;4.00;72.50;;;;;;20661366;28;20042;-55
2022/01/02 07:40:33;;;;;;;0.30;0.10;;;4.30;72.80;;;;;;20673792;28;20470;-53
2022/01/02 07:52:29;;;;;;;0.50;0.00;;;4.50;72.40;;;;;;20765692;28;20049;-52
2022/01/02 08:04:25;;;;;;;1.35;0.90;;;5.00;72.70;;;;;;20865914;28;20037;-54
2022/01/02 08:16:36;;;;;;;1.58;0.38;;;5.70;72.30;;;;;;20902381;28;20244;-55
2022/01/02 08:29:01;;;;;;;0.90;0.03;;;6.70;69.70;;;;;;20596434;28;20094;-52
2022/01/02 08:41:06;;;;;;;0.30;0.10;;;7.70;67.30;;;;;;20571617;28;20046;-51
2022/01/02 08:53:13;;;;;;;1.73;0.32;;;8.80;67.10;;;;;;20570814;28;20064;-56
2022/01/02 09:05:19;;;;;;;0.20;0.10;;;9.60;62.40;;;;;;20619787;28;20051;-57
2022/01/02 09:17:14;;;;;;;0.20;0.10;;;10.50;60.40;;;;;;20640033;28;20038;-55
2022/01/02 09:41:37;;;;;;;0.30;0.10;;;11.80;58.30;;;;;;20636185;28;20078;-56
2022/01/02 09:53:20;;;;;;;0.50;0.20;;;12.20;57.50;;;;;;20654718;28;20438;-55
2022/01/02 10:04:54;;;;;;;0.20;0.10;;;12.70;56.90;;;;;;20526691;28;20109;-56
2022/01/02 10:16:53;;;;;;;0.30;0.20;;;13.30;57.50;;;;;;20790130;28;20045;-55
2022/01/02 10:53:53;;;;;;;0.50;0.20;;;13.30;57.80;;;;;;20570521;28;20049;-57
2022/01/02 11:05:48;;;;;;;0.98;0.30;;;14.00;55.40;;;;;;20406789;29;20070;-58
2022/01/02 11:17:10;;;;;;;1.20;0.70;;;14.50;54.80;;;;;;20327286;29;20508;-60
2022/01/02 11:28:44;;;;;;;3.17;1.75;;;14.00;57.90;;;;;;20322684;29;20457;-57
2022/01/02 11:40:17;;;;;;;1.55;0.90;;;13.30;58.90;;;;;;20323777;29;20048;-57
2022/01/02 11:52:17;;;;;;;1.45;1.15;;;13.10;59.30;;;;;;20380444;29;20047;-56
2022/01/02 12:04:12;;;;;;;1.27;0.80;;;13.30;60.20;;;;;;20245732;29;20040;-55
2022/01/02 12:16:06;;;;;;;1.23;0.57;;;13.30;58.70;;;;;;20335406;29;20065;-58
2022/01/02 12:27:28;;;;;;;0.98;0.68;;;12.60;63.10;;;;;;20479417;29;20063;-57
2022/01/02 12:39:13;;;;;;;1.17;0.70;;;12.40;61.70;;;;;;20417810;29;20051;-57
2022/01/02 12:50:37;;;;;;;1.08;0.30;;;12.80;61.10;;;;;;20320709;29;20619;-56
2022/01/02 13:02:35;;;;;;;1.17;0.28;;;12.70;60.20;;;;;;20261566;29;20135;-58
2022/01/02 13:14:04;;;;;;;0.70;0.38;;;12.90;58.30;;;;;;20346658;29;20512;-58
2022/01/02 13:48:55;;;;;;;1.63;0.93;;;12.10;63.10;;;;;;20566968;28;19969;-57
2022/01/02 14:00:46;;;;;;;0.85;0.30;;;11.50;66.00;;;;;;20503996;28;20067;-56
2022/01/02 14:12:37;;;;;;;1.50;0.60;;;11.20;62.50;;;;;;20535672;28;20066;-57
2022/01/02 14:24:09;;;;;;;0.55;0.40;;;10.80;61.60;;;;;;20562603;28;20113;-55
2022/01/02 14:35:53;;;;;;;0.80;0.45;;;10.70;61.40;;;;;;20480908;29;20096;-56
2022/01/02 14:47:27;;;;;;;6.57;0.40;;;10.30;62.90;;;;;;20482757;28;20268;-57
2022/01/02 14:59:11;;;;;;;1.73;0.50;;;9.60;66.40;;;;;;20550882;28;20042;-56
2022/01/02 15:10:45;;;;;;;0.70;0.30;;;9.00;69.50;;;;;;20520359;28;20070;-53
2022/01/02 15:22:34;;;;;;;0.15;0.15;;;8.40;70.50;;;;;;20484221;28;20043;-55
2022/01/02 15:34:42;;;;;;;2.95;0.20;;;7.80;73.30;;;;;;20580183;28;20098;-52
2022/01/02 15:46:35;;;;;;;0.65;0.20;;;6.80;76.70;;;;;;20643321;28;20038;-53
2022/01/02 15:58:31;;;;;;;2.05;0.28;;;5.90;80.90;;;;;;20656417;28;20046;-55
2022/01/02 16:10:27;;;;;;;2.05;0.25;;;5.20;82.50;;;;;;20734663;28;20097;-52
2022/01/02 16:22:45;;;;;;;0.50;0.20;;;4.90;83.00;;;;;;20573348;28;20039;-52
2022/01/02 16:34:40;;;;;;;0.30;0.15;;;4.90;83.70;;;;;;20436291;29;20051;-56
2022/01/02 16:46:10;;;;;;;1.08;0.30;;;4.80;85.40;;;;;;20336047;29;20036;-51
2022/01/02 16:57:42;;;;;;;0.55;0.28;;;4.70;83.90;;;;;;20428681;29;20120;-52
2022/01/02 17:09:26;;;;;;;0.85;0.28;;;4.90;83.20;;;;;;20430662;28;20465;-52
2022/01/02 17:20:59;;;;;;;0.45;0.17;;;5.00;82.90;;;;;;20518559;28;20047;-55
2022/01/02 17:32:48;;;;;;;0.47;0.15;;;5.30;81.80;;;;;;20476483;28;20137;-55
2022/01/02 17:44:54;;;;;;;0.68;0.20;;;5.40;81.10;;;;;;20446422;29;20584;-57
2022/01/02 17:56:49;;;;;;;0.40;0.13;;;5.50;80.30;;;;;;20333762;29;20170;-52
2022/01/02 18:08:49;;;;;;;2.22;0.30;;;5.40;82.00;;;;;;20254395;29;20123;-52
2022/01/02 18:20:26;;;;;;;26.98;9.57;;;5.50;81.10;;;;;;20296696;29;20048;-57
2022/01/02 18:31:47;;;;;;;18.45;6.20;;;5.60;80.90;;;;;;20166499;29;20077;-55
2022/01/02 18:43:47;;;;;;;0.57;0.30;;;5.50;81.50;;;;;;20173734;29;20076;-52
2022/01/02 18:55:38;;;;;;;0.93;0.20;;;5.50;80.40;;;;;;20170539;29;20156;-52
2022/01/02 19:07:00;;;;;;;0.90;0.30;;;5.50;79.70;;;;;;20217782;29;20053;-53
2022/01/02 19:19:00;;;;;;;1.10;0.22;;;5.40;80.80;;;;;;20096228;29;20073;-56
2022/01/02 20:08:36;;;;;;;0.55;0.20;;;4.60;81.80;;;;;;19880587;29;20453;-53
2022/01/02 20:20:41;;;;;;;0.85;0.20;;;4.30;82.80;;;;;;19924665;29;20050;-53
2022/01/02 20:32:45;;;;;;;0.98;0.30;;;3.90;84.00;;;;;;19910239;29;20134;-53
2022/01/02 20:44:40;;;;;;;0.57;0.17;;;3.80;83.80;;;;;;20052240;29;20125;-51
2022/01/02 20:56:48;;;;;;;0.35;0.10;;;3.80;83.90;;;;;;20189091;29;20105;-54
2022/01/02 21:08:43;;;;;;;0.85;0.22;;;3.70;85.00;;;;;;20251150;29;20120;-61
2022/01/02 21:20:36;;;;;;;1.00;0.20;;;3.50;85.70;;;;;;20102429;29;20132;-61
2022/01/02 22:10:01;;;;;;;0.43;0.20;;;3.30;86.20;;;;;;20257916;29;20052;-52
2022/01/02 22:22:01;;;;;;;0.70;0.20;;;3.30;85.60;;;;;;20300049;29;20114;-54
2022/01/02 22:33:56;;;;;;;0.50;0.13;;;3.20;87.20;;;;;;20373787;29;20401;-53
2022/01/02 22:45:51;;;;;;;0.47;0.20;;;3.10;87.60;;;;;;20485673;28;20067;-51
2022/01/02 22:57:46;;;;;;;0.90;0.20;;;3.10;88.30;;;;;;20580933;28;20070;-52
2022/01/02 23:09:42;;;;;;;0.20;0.10;;;3.10;89.60;;;;;;20445085;29;20144;-51
2022/01/02 23:21:33;;;;;;;0.80;0.20;;;3.10;90.20;;;;;;20557874;28;20513;-51
2022/01/02 23:33:06;;;;;;;0.90;0.20;;;3.70;88.30;;;;;;20602126;28;20516;-51
2022/01/02 23:44:54;;;;;;;0.75;0.30;;;3.80;88.20;;;;;;20438229;29;20075;-54
2022/01/02 23:57:02;;;;;;;0.45;0.20;;;3.80;87.50;;;;;;20245821;29;20044;-54
